Vicuna Mackenna, Argentina
Current Conditions -  °F | °C
As of 8:00 AM on Thursday 27 Nov 2014 (Local Time) from SAOC Reporting Station
Clear Clear  
Wind Chill: 68°   Ceiling: Unl
Heat Index: 68°   Visibility: 6mi
Dew Point: 52°   Wind: 15mph
Humidity: 56%   Direction: 340°NNW
Pressure: 29.97"   Gusts: NA
Location:  33.9°S, 64.38°W
Report Text: SAOC 271100Z 34013KT CAVOK 20/11 Q1015
Loading
Personal Weather Stations






























Interactive Weather Map New forecast layout! Learn more

10-Day Weather Forecast

Advertisements
Track Severe Weather on mobile